sensor_id;sensor_type;location;lat;lon;timestamp;pressure;altitude;pressure_sealevel;temperature;humidity
77124;BME280;66079;47.646;19.130;2023-03-01T00:01:39;101469.47;;;4.89;58.70
77124;BME280;66079;47.646;19.130;2023-03-01T00:04:42;101472.44;;;4.94;58.16
77124;BME280;66079;47.646;19.130;2023-03-01T00:07:45;101472.69;;;5.00;58.48
77124;BME280;66079;47.646;19.130;2023-03-01T00:10:48;101477.19;;;4.98;58.11
77124;BME280;66079;47.646;19.130;2023-03-01T00:13:53;101462.41;;;4.81;58.41
77124;BME280;66079;47.646;19.130;2023-03-01T00:16:56;101475.28;;;4.81;58.77
77124;BME280;66079;47.646;19.130;2023-03-01T00:19:58;101462.28;;;4.73;58.43
77124;BME280;66079;47.646;19.130;2023-03-01T00:23:01;101483.00;;;4.81;58.66
77124;BME280;66079;47.646;19.130;2023-03-01T00:26:09;101466.38;;;4.76;58.98
77124;BME280;66079;47.646;19.130;2023-03-01T00:29:14;101477.06;;;4.71;58.81
77124;BME280;66079;47.646;19.130;2023-03-01T00:32:17;101484.25;;;4.87;58.70
77124;BME280;66079;47.646;19.130;2023-03-01T00:35:19;101479.59;;;5.00;58.39
77124;BME280;66079;47.646;19.130;2023-03-01T00:38:22;101463.34;;;4.90;58.70
77124;BME280;66079;47.646;19.130;2023-03-01T00:41:25;101472.69;;;5.00;58.73
77124;BME280;66079;47.646;19.130;2023-03-01T00:44:31;101460.91;;;4.88;58.71
77124;BME280;66079;47.646;19.130;2023-03-01T00:47:33;101484.19;;;5.06;58.68
77124;BME280;66079;47.646;19.130;2023-03-01T00:50:36;101467.44;;;4.92;58.88
77124;BME280;66079;47.646;19.130;2023-03-01T00:53:40;101469.31;;;4.90;58.65
77124;BME280;66079;47.646;19.130;2023-03-01T00:56:42;101462.28;;;4.92;58.65
77124;BME280;66079;47.646;19.130;2023-03-01T00:59:45;101471.84;;;5.09;58.35
77124;BME280;66079;47.646;19.130;2023-03-01T01:02:48;101471.84;;;5.09;57.95
77124;BME280;66079;47.646;19.130;2023-03-01T01:05:52;101479.56;;;5.19;58.06
77124;BME280;66079;47.646;19.130;2023-03-01T01:08:55;101463.19;;;5.10;58.57
77124;BME280;66079;47.646;19.130;2023-03-01T01:11:58;101475.94;;;5.12;58.83
77124;BME280;66079;47.646;19.130;2023-03-01T01:15:00;101465.50;;;5.04;59.15
77124;BME280;66079;47.646;19.130;2023-03-01T01:18:03;101454.44;;;4.84;59.57
77124;BME280;66079;47.646;19.130;2023-03-01T01:21:09;101464.19;;;4.90;59.39
77124;BME280;66079;47.646;19.130;2023-03-01T01:24:12;101462.53;;;4.99;59.29
77124;BME280;66079;47.646;19.130;2023-03-01T01:27:14;101465.50;;;5.04;59.84
77124;BME280;66079;47.646;19.130;2023-03-01T01:30:17;101451.00;;;4.93;59.82
77124;BME280;66079;47.646;19.130;2023-03-01T01:33:20;101446.53;;;4.95;60.39
77124;BME280;66079;47.646;19.130;2023-03-01T01:36:22;101445.69;;;5.04;60.48
77124;BME280;66079;47.646;19.130;2023-03-01T01:39:25;101442.47;;;5.02;61.08
77124;BME280;66079;47.646;19.130;2023-03-01T01:42:28;101439.34;;;4.99;61.49
77124;BME280;66079;47.646;19.130;2023-03-01T01:45:34;101436.53;;;4.92;62.27
77124;BME280;66079;47.646;19.130;2023-03-01T01:48:49;101422.84;;;4.82;62.55
77124;BME280;66079;47.646;19.130;2023-03-01T01:51:59;101433.00;;;4.84;63.12
77124;BME280;66079;47.646;19.130;2023-03-01T01:58:07;101423.13;;;4.79;64.44
77124;BME280;66079;47.646;19.130;2023-03-01T02:01:13;101405.22;;;4.78;64.78
77124;BME280;66079;47.646;19.130;2023-03-01T02:04:16;101402.63;;;4.87;63.63
77124;BME280;66079;47.646;19.130;2023-03-01T02:07:23;101408.31;;;4.91;64.18
77124;BME280;66079;47.646;19.130;2023-03-01T02:10:28;101398.56;;;4.85;63.20
77124;BME280;66079;47.646;19.130;2023-03-01T02:13:32;101400.44;;;4.83;64.22
77124;BME280;66079;47.646;19.130;2023-03-01T02:16:35;101409.53;;;4.87;63.33
77124;BME280;66079;47.646;19.130;2023-03-01T02:20:00;101408.31;;;4.91;64.14
77124;BME280;66079;47.646;19.130;2023-03-01T02:23:10;101400.72;;;4.89;64.05
77124;BME280;66079;47.646;19.130;2023-03-01T02:26:35;101407.19;;;5.03;63.27
77124;BME280;66079;47.646;19.130;2023-03-01T02:29:42;101403.13;;;5.00;63.13
77124;BME280;66079;47.646;19.130;2023-03-01T02:32:47;101400.66;;;5.08;63.47
77124;BME280;66079;47.646;19.130;2023-03-01T02:35:52;101384.13;;;5.01;63.03
77124;BME280;66079;47.646;19.130;2023-03-01T02:38:58;101400.97;;;5.05;62.07
77124;BME280;66079;47.646;19.130;2023-03-01T02:42:02;101394.00;;;5.06;63.41
77124;BME280;66079;47.646;19.130;2023-03-01T02:45:06;101389.97;;;5.03;63.63
77124;BME280;66079;47.646;19.130;2023-03-01T02:48:09;101381.72;;;5.00;63.42
77124;BME280;66079;47.646;19.130;2023-03-01T02:57:51;101382.97;;;4.96;63.02
77124;BME280;66079;47.646;19.130;2023-03-01T03:00:54;101382.41;;;4.83;62.93
77124;BME280;66079;47.646;19.130;2023-03-01T03:03:59;101364.13;;;4.86;64.21
77124;BME280;66079;47.646;19.130;2023-03-01T03:07:02;101368.19;;;4.88;64.48
77124;BME280;66079;47.646;19.130;2023-03-01T03:10:13;101377.53;;;4.89;63.36
77124;BME280;66079;47.646;19.130;2023-03-01T03:13:16;101381.50;;;4.84;62.58
77124;BME280;66079;47.646;19.130;2023-03-01T03:16:20;101377.97;;;4.75;63.15
77124;BME280;66079;47.646;19.130;2023-03-01T03:19:22;101365.81;;;4.68;63.12
77124;BME280;66079;47.646;19.130;2023-03-01T03:22:25;101349.00;;;4.64;62.82
77124;BME280;66079;47.646;19.130;2023-03-01T03:25:30;101354.31;;;4.53;62.20
77124;BME280;66079;47.646;19.130;2023-03-01T03:28:34;101358.47;;;4.63;62.25
77124;BME280;66079;47.646;19.130;2023-03-01T03:31:36;101360.78;;;4.57;62.48
77124;BME280;66079;47.646;19.130;2023-03-01T03:34:39;101352.94;;;4.58;62.49
77124;BME280;66079;47.646;19.130;2023-03-01T03:37:42;101352.00;;;4.59;62.17
77124;BME280;66079;47.646;19.130;2023-03-01T03:41:05;101358.22;;;4.57;61.77
77124;BME280;66079;47.646;19.130;2023-03-01T03:44:09;101353.06;;;4.57;61.93
77124;BME280;66079;47.646;19.130;2023-03-01T03:47:11;101356.63;;;4.46;62.62
77124;BME280;66079;47.646;19.130;2023-03-01T03:50:17;101364.91;;;4.50;62.65
77124;BME280;66079;47.646;19.130;2023-03-01T03:53:21;101362.84;;;4.53;62.77
77124;BME280;66079;47.646;19.130;2023-03-01T03:56:24;101356.50;;;4.48;63.29
77124;BME280;66079;47.646;19.130;2023-03-01T03:59:29;101363.41;;;4.38;63.60
77124;BME280;66079;47.646;19.130;2023-03-01T04:02:32;101361.34;;;4.51;62.87
77124;BME280;66079;47.646;19.130;2023-03-01T04:05:36;101377.88;;;4.58;62.73
77124;BME280;66079;47.646;19.130;2023-03-01T04:08:38;101357.31;;;4.39;62.84
77124;BME280;66079;47.646;19.130;2023-03-01T04:11:41;101351.34;;;4.38;62.95
77124;BME280;66079;47.646;19.130;2023-03-01T04:14:44;101362.72;;;4.36;62.75
77124;BME280;66079;47.646;19.130;2023-03-01T04:17:50;101373.28;;;4.52;62.07
77124;BME280;66079;47.646;19.130;2023-03-01T04:20:54;101379.91;;;4.54;61.95
77124;BME280;66079;47.646;19.130;2023-03-01T04:23:57;101365.97;;;4.38;61.87
77124;BME280;66079;47.646;19.130;2023-03-01T04:27:00;101371.28;;;4.36;62.37
77124;BME280;66079;47.646;19.130;2023-03-01T04:30:05;101383.97;;;4.47;62.52
77124;BME280;66079;47.646;19.130;2023-03-01T04:33:09;101378.72;;;4.39;62.23
77124;BME280;66079;47.646;19.130;2023-03-01T04:36:14;101387.13;;;4.41;62.44
77124;BME280;66079;47.646;19.130;2023-03-01T04:39:16;101381.69;;;4.44;62.39
77124;BME280;66079;47.646;19.130;2023-03-01T04:42:19;101375.34;;;4.48;62.13
77124;BME280;66079;47.646;19.130;2023-03-01T04:45:22;101379.53;;;4.40;62.61
77124;BME280;66079;47.646;19.130;2023-03-01T04:48:25;101371.81;;;4.30;63.31
77124;BME280;66079;47.646;19.130;2023-03-01T04:51:28;101368.00;;;4.34;62.95
77124;BME280;66079;47.646;19.130;2023-03-01T04:54:32;101362.06;;;4.43;62.91
77124;BME280;66079;47.646;19.130;2023-03-01T04:57:36;101339.03;;;4.42;62.44
77124;BME280;66079;47.646;19.130;2023-03-01T05:00:39;101353.88;;;4.57;62.12
77124;BME280;66079;47.646;19.130;2023-03-01T05:03:43;101352.16;;;4.48;63.03
77124;BME280;66079;47.646;19.130;2023-03-01T05:06:45;101348.22;;;4.44;63.13
77124;BME280;66079;47.646;19.130;2023-03-01T05:09:48;101352.28;;;4.56;62.66
77124;BME280;66079;47.646;19.130;2023-03-01T05:12:50;101360.66;;;4.68;62.56
77124;BME280;66079;47.646;19.130;2023-03-01T05:15:59;101357.16;;;4.59;62.04
77124;BME280;66079;47.646;19.130;2023-03-01T05:19:03;101356.31;;;4.59;61.93
77124;BME280;66079;47.646;19.130;2023-03-01T05:22:13;101355.25;;;4.61;61.35
77124;BME280;66079;47.646;19.130;2023-03-01T05:25:16;101354.72;;;4.58;61.35
77124;BME280;66079;47.646;19.130;2023-03-01T05:28:19;101357.53;;;4.64;61.29
77124;BME280;66079;47.646;19.130;2023-03-01T05:31:22;101358.75;;;4.60;61.67
77124;BME280;66079;47.646;19.130;2023-03-01T05:34:25;101360.41;;;4.61;61.61
77124;BME280;66079;47.646;19.130;2023-03-01T05:37:29;101370.84;;;4.60;62.24
77124;BME280;66079;47.646;19.130;2023-03-01T05:40:34;101356.44;;;4.67;61.86
77124;BME280;66079;47.646;19.130;2023-03-01T05:43:37;101355.53;;;4.49;61.93
77124;BME280;66079;47.646;19.130;2023-03-01T05:46:41;101365.56;;;4.61;61.74
77124;BME280;66079;47.646;19.130;2023-03-01T05:49:43;101366.31;;;4.71;61.63
77124;BME280;66079;47.646;19.130;2023-03-01T05:53:06;101366.59;;;4.68;61.71
77124;BME280;66079;47.646;19.130;2023-03-01T05:56:10;101364.41;;;4.73;61.55
77124;BME280;66079;47.646;19.130;2023-03-01T05:59:13;101357.91;;;4.79;61.50
77124;BME280;66079;47.646;19.130;2023-03-01T06:02:17;101374.41;;;4.95;61.03
77124;BME280;66079;47.646;19.130;2023-03-01T06:05:20;101363.59;;;4.82;61.13
77124;BME280;66079;47.646;19.130;2023-03-01T06:08:24;101371.56;;;4.89;60.52
77124;BME280;66079;47.646;19.130;2023-03-01T06:11:29;101376.31;;;4.93;60.61
77124;BME280;66079;47.646;19.130;2023-03-01T06:14:32;101388.19;;;5.13;60.70
77124;BME280;66079;47.646;19.130;2023-03-01T06:17:34;101379.91;;;5.10;60.45
77124;BME280;66079;47.646;19.130;2023-03-01T06:20:41;101378.31;;;5.09;60.14
77124;BME280;66079;47.646;19.130;2023-03-01T06:23:44;101390.06;;;5.11;60.28
77124;BME280;66079;47.646;19.130;2023-03-01T06:26:47;101386.66;;;5.20;59.57
77124;BME280;66079;47.646;19.130;2023-03-01T06:29:49;101396.41;;;5.26;59.61
77124;BME280;66079;47.646;19.130;2023-03-01T06:32:53;101391.16;;;5.18;59.84
77124;BME280;66079;47.646;19.130;2023-03-01T06:36:03;101403.22;;;5.18;59.89
77124;BME280;66079;47.646;19.130;2023-03-01T06:39:06;101407.63;;;5.25;59.74
77124;BME280;66079;47.646;19.130;2023-03-01T06:42:09;101412.69;;;5.27;60.19
77124;BME280;66079;47.646;19.130;2023-03-01T06:45:14;101406.03;;;5.24;60.53
77124;BME280;66079;47.646;19.130;2023-03-01T06:48:17;101396.81;;;5.22;60.52
77124;BME280;66079;47.646;19.130;2023-03-01T06:51:20;101408.47;;;5.26;60.70
77124;BME280;66079;47.646;19.130;2023-03-01T06:54:22;101400.81;;;5.34;60.41
77124;BME280;66079;47.646;19.130;2023-03-01T06:57:25;101410.25;;;5.53;59.29
77124;BME280;66079;47.646;19.130;2023-03-01T07:00:31;101398.31;;;5.52;58.79
77124;BME280;66079;47.646;19.130;2023-03-01T07:03:33;101418.38;;;5.58;58.98
77124;BME280;66079;47.646;19.130;2023-03-01T07:06:36;101415.22;;;5.64;58.35
77124;BME280;66079;47.646;19.130;2023-03-01T07:09:39;101392.44;;;5.59;57.70
77124;BME280;66079;47.646;19.130;2023-03-01T07:12:41;101414.91;;;5.67;57.92
77124;BME280;66079;47.646;19.130;2023-03-01T07:15:44;101396.38;;;5.81;57.23
77124;BME280;66079;47.646;19.130;2023-03-01T07:18:47;101386.41;;;5.95;56.34
77124;BME280;66079;47.646;19.130;2023-03-01T07:21:49;101407.41;;;6.18;56.31
77124;BME280;66079;47.646;19.130;2023-03-01T07:24:52;101403.28;;;6.25;55.77
77124;BME280;66079;47.646;19.130;2023-03-01T07:27:54;101406.53;;;6.27;55.42
77124;BME280;66079;47.646;19.130;2023-03-01T07:31:02;101386.69;;;6.27;54.82
77124;BME280;66079;47.646;19.130;2023-03-01T07:34:04;101379.25;;;6.24;54.79
77124;BME280;66079;47.646;19.130;2023-03-01T07:37:07;101389.19;;;6.54;54.43
77124;BME280;66079;47.646;19.130;2023-03-01T07:40:11;101379.88;;;6.61;53.67
77124;BME280;66079;47.646;19.130;2023-03-01T07:43:14;101372.19;;;6.69;53.00
77124;BME280;66079;47.646;19.130;2023-03-01T07:46:17;101370.31;;;6.62;53.33
77124;BME280;66079;47.646;19.130;2023-03-01T07:49:21;101365.78;;;6.82;53.48
77124;BME280;66079;47.646;19.130;2023-03-01T07:52:24;101369.28;;;7.06;52.80
77124;BME280;66079;47.646;19.130;2023-03-01T07:55:26;101370.69;;;7.26;52.23
77124;BME280;66079;47.646;19.130;2023-03-01T07:58:29;101363.19;;;7.07;51.83
77124;BME280;66079;47.646;19.130;2023-03-01T08:01:32;101376.63;;;7.11;51.65
77124;BME280;66079;47.646;19.130;2023-03-01T08:04:34;101371.22;;;7.38;50.84
77124;BME280;66079;47.646;19.130;2023-03-01T08:07:37;101383.41;;;7.53;51.23
77124;BME280;66079;47.646;19.130;2023-03-01T08:10:42;101383.47;;;7.69;50.83
77124;BME280;66079;47.646;19.130;2023-03-01T08:13:47;101378.31;;;7.77;49.94
77124;BME280;66079;47.646;19.130;2023-03-01T08:16:53;101355.66;;;7.71;49.01
77124;BME280;66079;47.646;19.130;2023-03-01T08:19:55;101372.84;;;8.04;49.28
77124;BME280;66079;47.646;19.130;2023-03-01T08:22:58;101370.59;;;8.18;48.27
77124;BME280;66079;47.646;19.130;2023-03-01T08:26:09;101362.50;;;8.53;47.85
77124;BME280;66079;47.646;19.130;2023-03-01T08:29:12;101366.53;;;8.71;47.47
77124;BME280;66079;47.646;19.130;2023-03-01T08:32:15;101364.91;;;8.70;46.40
77124;BME280;66079;47.646;19.130;2023-03-01T08:35:21;101354.34;;;8.96;45.85
77124;BME280;66079;47.646;19.130;2023-03-01T08:38:24;101357.75;;;8.80;46.07
77124;BME280;66079;47.646;19.130;2023-03-01T08:41:27;101352.84;;;9.09;45.30
77124;BME280;66079;47.646;19.130;2023-03-01T08:44:30;101339.44;;;8.90;45.63
77124;BME280;66079;47.646;19.130;2023-03-01T08:47:32;101344.03;;;8.64;46.40
77124;BME280;66079;47.646;19.130;2023-03-01T08:50:39;101340.53;;;8.41;46.51
77124;BME280;66079;47.646;19.130;2023-03-01T08:53:44;101345.50;;;8.10;47.58
77124;BME280;66079;47.646;19.130;2023-03-01T08:56:47;101329.66;;;8.53;47.48
77124;BME280;66079;47.646;19.130;2023-03-01T08:59:50;101328.78;;;8.77;46.71
77124;BME280;66079;47.646;19.130;2023-03-01T09:02:52;101329.59;;;8.69;46.71
77124;BME280;66079;47.646;19.130;2023-03-01T09:06:00;101327.16;;;8.76;46.47
77124;BME280;66079;47.646;19.130;2023-03-01T09:09:04;101331.34;;;8.93;46.71
77124;BME280;66079;47.646;19.130;2023-03-01T09:12:07;101331.31;;;9.01;46.35
77124;BME280;66079;47.646;19.130;2023-03-01T09:15:10;101329.75;;;9.22;45.58
77124;BME280;66079;47.646;19.130;2023-03-01T09:18:13;101329.66;;;9.69;45.00
77124;BME280;66079;47.646;19.130;2023-03-01T09:21:16;101325.16;;;9.63;44.45
77124;BME280;66079;47.646;19.130;2023-03-01T09:24:32;101312.28;;;9.47;45.40
77124;BME280;66079;47.646;19.130;2023-03-01T09:27:34;101313.69;;;9.80;44.38
77124;BME280;66079;47.646;19.130;2023-03-01T09:30:39;101317.97;;;9.73;44.51
77124;BME280;66079;47.646;19.130;2023-03-01T09:33:42;101313.44;;;9.67;44.86
77124;BME280;66079;47.646;19.130;2023-03-01T09:36:45;101303.88;;;9.90;44.63
77124;BME280;66079;47.646;19.130;2023-03-01T09:39:47;101307.75;;;9.94;44.46
77124;BME280;66079;47.646;19.130;2023-03-01T09:43:06;101308.50;;;10.03;44.61
77124;BME280;66079;47.646;19.130;2023-03-01T09:46:13;101294.97;;;10.30;44.07
77124;BME280;66079;47.646;19.130;2023-03-01T09:49:22;101295.63;;;10.75;42.69
77124;BME280;66079;47.646;19.130;2023-03-01T09:56:00;101284.25;;;10.62;42.74
77124;BME280;66079;47.646;19.130;2023-03-01T10:06:13;101268.50;;;12.47;39.07
77124;BME280;66079;47.646;19.130;2023-03-01T10:09:34;101268.19;;;13.90;36.15
77124;BME280;66079;47.646;19.130;2023-03-01T10:12:40;101252.59;;;15.17;33.62
77124;BME280;66079;47.646;19.130;2023-03-01T10:16:11;101263.59;;;15.32;32.74
77124;BME280;66079;47.646;19.130;2023-03-01T10:19:24;101255.97;;;14.87;33.72
77124;BME280;66079;47.646;19.130;2023-03-01T10:22:30;101261.16;;;14.29;34.58
77124;BME280;66079;47.646;19.130;2023-03-01T10:29:03;101246.19;;;16.25;31.23
77124;BME280;66079;47.646;19.130;2023-03-01T10:32:05;101239.41;;;16.60;30.60
77124;BME280;66079;47.646;19.130;2023-03-01T10:35:34;101232.28;;;17.26;29.88
77124;BME280;66079;47.646;19.130;2023-03-01T10:38:53;101222.16;;;17.94;28.66
77124;BME280;66079;47.646;19.130;2023-03-01T10:42:04;101224.19;;;18.15;28.52
77124;BME280;66079;47.646;19.130;2023-03-01T10:48:31;101215.53;;;21.61;24.04
77124;BME280;66079;47.646;19.130;2023-03-01T10:51:34;101194.00;;;20.24;24.99
77124;BME280;66079;47.646;19.130;2023-03-01T10:54:37;101198.06;;;20.53;25.01
77124;BME280;66079;47.646;19.130;2023-03-01T10:57:40;101199.47;;;19.68;25.75
77124;BME280;66079;47.646;19.130;2023-03-01T11:00:51;101193.97;;;20.67;24.42
77124;BME280;66079;47.646;19.130;2023-03-01T11:04:15;101185.09;;;20.30;25.30
77124;BME280;66079;47.646;19.130;2023-03-01T11:07:19;101186.47;;;22.54;22.71
77124;BME280;66079;47.646;19.130;2023-03-01T11:10:33;101175.75;;;23.46;21.56
77124;BME280;66079;47.646;19.130;2023-03-01T11:17:29;101169.63;;;23.60;20.70
77124;BME280;66079;47.646;19.130;2023-03-01T11:20:41;101172.44;;;22.59;22.30
77124;BME280;66079;47.646;19.130;2023-03-01T11:23:46;101170.16;;;25.00;19.81
77124;BME280;66079;47.646;19.130;2023-03-01T11:26:54;101171.66;;;25.11;19.47
77124;BME280;66079;47.646;19.130;2023-03-01T11:33:30;101156.41;;;25.55;19.11
77124;BME280;66079;47.646;19.130;2023-03-01T11:36:48;101158.41;;;25.06;19.94
77124;BME280;66079;47.646;19.130;2023-03-01T11:40:05;101146.03;;;25.25;19.37
77124;BME280;66079;47.646;19.130;2023-03-01T11:43:47;101145.84;;;26.02;18.42
77124;BME280;66079;47.646;19.130;2023-03-01T11:53:56;101144.56;;;26.18;18.38
77124;BME280;66079;47.646;19.130;2023-03-01T12:04:20;101135.31;;;20.65;25.30
77124;BME280;66079;47.646;19.130;2023-03-01T12:07:46;101134.59;;;21.65;23.84
77124;BME280;66079;47.646;19.130;2023-03-01T12:14:36;101123.63;;;21.88;23.68
77124;BME280;66079;47.646;19.130;2023-03-01T12:17:56;101118.56;;;22.38;23.38
77124;BME280;66079;47.646;19.130;2023-03-01T12:34:46;101100.63;;;19.21;28.00
77124;BME280;66079;47.646;19.130;2023-03-01T12:51:28;101080.50;;;24.23;21.26
77124;BME280;66079;47.646;19.130;2023-03-01T12:54:35;101081.50;;;23.58;21.79
77124;BME280;66079;47.646;19.130;2023-03-01T12:57:46;101078.84;;;25.62;19.55
77124;BME280;66079;47.646;19.130;2023-03-01T13:04:26;101071.75;;;28.77;15.87
77124;BME280;66079;47.646;19.130;2023-03-01T13:11:19;101067.47;;;29.59;15.90
77124;BME280;66079;47.646;19.130;2023-03-01T13:17:31;101065.13;;;28.52;16.05
77124;BME280;66079;47.646;19.130;2023-03-01T13:20:46;101058.78;;;30.02;15.04
77124;BME280;66079;47.646;19.130;2023-03-01T13:23:50;101062.75;;;30.55;14.74
77124;BME280;66079;47.646;19.130;2023-03-01T13:33:44;101051.44;;;27.42;17.75
77124;BME280;66079;47.646;19.130;2023-03-01T13:36:49;101042.56;;;28.09;16.80
77124;BME280;66079;47.646;19.130;2023-03-01T13:39:52;101035.13;;;27.11;17.50
77124;BME280;66079;47.646;19.130;2023-03-01T13:42:55;101042.78;;;29.01;16.18
77124;BME280;66079;47.646;19.130;2023-03-01T13:46:23;101027.88;;;28.56;16.00
77124;BME280;66079;47.646;19.130;2023-03-01T13:49:29;101031.19;;;29.45;15.46
77124;BME280;66079;47.646;19.130;2023-03-01T13:52:53;101021.16;;;29.59;15.10
77124;BME280;66079;47.646;19.130;2023-03-01T13:56:12;101017.75;;;29.28;15.29
77124;BME280;66079;47.646;19.130;2023-03-01T13:59:20;101020.69;;;29.18;15.70
77124;BME280;66079;47.646;19.130;2023-03-01T14:02:22;101017.69;;;27.73;16.63
77124;BME280;66079;47.646;19.130;2023-03-01T14:05:25;101010.66;;;27.50;16.60
77124;BME280;66079;47.646;19.130;2023-03-01T14:08:30;101001.34;;;27.20;17.46
77124;BME280;66079;47.646;19.130;2023-03-01T14:18:29;100988.59;;;27.58;17.25
77124;BME280;66079;47.646;19.130;2023-03-01T14:21:37;100984.56;;;27.47;17.61
77124;BME280;66079;47.646;19.130;2023-03-01T14:24:46;100973.56;;;28.33;16.33
77124;BME280;66079;47.646;19.130;2023-03-01T14:27:58;100980.34;;;28.39;16.15
77124;BME280;66079;47.646;19.130;2023-03-01T14:31:01;100973.31;;;25.00;19.25
77124;BME280;66079;47.646;19.130;2023-03-01T14:34:05;100975.25;;;26.21;18.48
77124;BME280;66079;47.646;19.130;2023-03-01T14:40:27;100976.88;;;26.54;18.76
77124;BME280;66079;47.646;19.130;2023-03-01T14:43:30;100966.13;;;23.90;20.59
77124;BME280;66079;47.646;19.130;2023-03-01T14:46:37;100957.78;;;20.68;24.44
77124;BME280;66079;47.646;19.130;2023-03-01T14:49:40;100948.53;;;18.83;27.48
77124;BME280;66079;47.646;19.130;2023-03-01T14:52:46;100950.84;;;18.46;29.19
77124;BME280;66079;47.646;19.130;2023-03-01T14:55:55;100942.56;;;17.70;30.14
77124;BME280;66079;47.646;19.130;2023-03-01T14:58:58;100933.66;;;17.08;30.94
77124;BME280;66079;47.646;19.130;2023-03-01T15:02:01;100935.19;;;16.40;32.64
77124;BME280;66079;47.646;19.130;2023-03-01T15:05:05;100935.97;;;16.41;32.59
77124;BME280;66079;47.646;19.130;2023-03-01T15:08:19;100924.09;;;16.27;32.92
77124;BME280;66079;47.646;19.130;2023-03-01T15:11:27;100923.84;;;16.17;33.38
77124;BME280;66079;47.646;19.130;2023-03-01T15:14:42;100920.88;;;15.83;33.79
77124;BME280;66079;47.646;19.130;2023-03-01T15:18:02;100925.53;;;15.63;33.90
77124;BME280;66079;47.646;19.130;2023-03-01T15:21:08;100925.53;;;15.27;34.92
77124;BME280;66079;47.646;19.130;2023-03-01T15:27:23;100920.34;;;15.03;35.64
77124;BME280;66079;47.646;19.130;2023-03-01T15:30:30;100933.91;;;15.18;35.91
77124;BME280;66079;47.646;19.130;2023-03-01T15:33:38;100931.38;;;14.87;35.78
77124;BME280;66079;47.646;19.130;2023-03-01T15:36:46;100927.69;;;14.51;36.52
77124;BME280;66079;47.646;19.130;2023-03-01T15:39:53;100931.25;;;14.57;36.58
77124;BME280;66079;47.646;19.130;2023-03-01T15:43:02;100922.22;;;14.53;37.23
77124;BME280;66079;47.646;19.130;2023-03-01T15:46:05;100922.59;;;14.25;37.31
77124;BME280;66079;47.646;19.130;2023-03-01T15:52:30;100922.75;;;13.55;38.67
77124;BME280;66079;47.646;19.130;2023-03-01T15:55:37;100918.19;;;13.44;39.34
77124;BME280;66079;47.646;19.130;2023-03-01T15:58:39;100932.13;;;13.18;39.54
77124;BME280;66079;47.646;19.130;2023-03-01T16:01:44;100918.25;;;13.18;39.64
77124;BME280;66079;47.646;19.130;2023-03-01T16:04:47;100932.50;;;13.22;39.75
77124;BME280;66079;47.646;19.130;2023-03-01T16:07:51;100925.69;;;13.14;39.79
77124;BME280;66079;47.646;19.130;2023-03-01T16:10:56;100928.31;;;12.95;39.92
77124;BME280;66079;47.646;19.130;2023-03-01T16:13:59;100930.13;;;12.88;40.73
77124;BME280;66079;47.646;19.130;2023-03-01T16:17:02;100923.91;;;12.82;41.45
77124;BME280;66079;47.646;19.130;2023-03-01T16:20:05;100930.13;;;12.75;41.22
77124;BME280;66079;47.646;19.130;2023-03-01T16:23:16;100927.53;;;12.42;41.69
77124;BME280;66079;47.646;19.130;2023-03-01T16:26:19;100923.63;;;12.05;43.09
77124;BME280;66079;47.646;19.130;2023-03-01T16:29:22;100942.25;;;11.96;43.55
77124;BME280;66079;47.646;19.130;2023-03-01T16:32:25;100934.19;;;11.78;44.23
77124;BME280;66079;47.646;19.130;2023-03-01T16:35:28;100951.00;;;11.69;45.25
77124;BME280;66079;47.646;19.130;2023-03-01T16:38:31;100946.00;;;11.40;45.43
77124;BME280;66079;47.646;19.130;2023-03-01T16:41:34;100951.28;;;11.19;46.59
77124;BME280;66079;47.646;19.130;2023-03-01T16:44:38;100957.88;;;11.15;46.23
77124;BME280;66079;47.646;19.130;2023-03-01T16:47:40;100947.16;;;10.97;47.90
77124;BME280;66079;47.646;19.130;2023-03-01T16:50:44;100952.91;;;10.92;47.99
77124;BME280;66079;47.646;19.130;2023-03-01T16:53:48;100954.75;;;10.70;47.83
77124;BME280;66079;47.646;19.130;2023-03-01T16:56:50;100961.94;;;10.68;48.57
77124;BME280;66079;47.646;19.130;2023-03-01T16:59:53;100968.75;;;10.48;49.13
77124;BME280;66079;47.646;19.130;2023-03-01T17:02:57;100960.81;;;10.14;49.84
77124;BME280;66079;47.646;19.130;2023-03-01T17:06:04;100968.06;;;10.04;49.78
77124;BME280;66079;47.646;19.130;2023-03-01T17:09:07;100972.63;;;10.02;50.18
77124;BME280;66079;47.646;19.130;2023-03-01T17:12:14;100974.69;;;9.92;50.39
77124;BME280;66079;47.646;19.130;2023-03-01T17:15:17;100989.06;;;9.88;50.69
77124;BME280;66079;47.646;19.130;2023-03-01T17:18:20;100973.75;;;9.64;51.51
77124;BME280;66079;47.646;19.130;2023-03-01T17:21:22;100970.63;;;9.54;51.47
77124;BME280;66079;47.646;19.130;2023-03-01T17:24:25;100976.34;;;9.50;52.02
77124;BME280;66079;47.646;19.130;2023-03-01T17:27:27;100983.41;;;9.41;52.62
77124;BME280;66079;47.646;19.130;2023-03-01T17:30:30;100986.00;;;9.12;52.97
77124;BME280;66079;47.646;19.130;2023-03-01T17:33:34;100960.41;;;9.09;53.27
77124;BME280;66079;47.646;19.130;2023-03-01T17:36:37;100997.09;;;9.20;53.11
77124;BME280;66079;47.646;19.130;2023-03-01T17:39:45;100989.94;;;9.08;53.24
77124;BME280;66079;47.646;19.130;2023-03-01T17:42:48;100978.66;;;9.01;54.22
77124;BME280;66079;47.646;19.130;2023-03-01T17:45:51;100975.59;;;8.97;54.21
77124;BME280;66079;47.646;19.130;2023-03-01T17:48:54;100982.91;;;8.94;54.15
77124;BME280;66079;47.646;19.130;2023-03-01T17:51:57;100978.50;;;8.80;54.29
77124;BME280;66079;47.646;19.130;2023-03-01T17:54:59;100982.50;;;8.68;54.83
77124;BME280;66079;47.646;19.130;2023-03-01T17:58:06;100971.78;;;8.48;55.52